sensor_id;sensor_type;location;lat;lon;timestamp;temperature;humidity
4201;DHT22;2114;50.398;8.814;2022-11-15T00:04:35;8.10;99.90
4201;DHT22;2114;50.398;8.814;2022-11-15T00:09:36;8.00;99.90
4201;DHT22;2114;50.398;8.814;2022-11-15T00:14:36;8.00;99.90
4201;DHT22;2114;50.398;8.814;2022-11-15T00:19:37;8.00;99.90
4201;DHT22;2114;50.398;8.814;2022-11-15T00:24:37;7.90;99.90
4201;DHT22;2114;50.398;8.814;2022-11-15T00:29:38;7.90;99.90
4201;DHT22;2114;50.398;8.814;2022-11-15T00:34:43;7.90;99.90
4201;DHT22;2114;50.398;8.814;2022-11-15T00:39:43;7.90;99.90
4201;DHT22;2114;50.398;8.814;2022-11-15T00:44:44;8.00;99.90
4201;DHT22;2114;50.398;8.814;2022-11-15T00:49:44;8.00;99.90
4201;DHT22;2114;50.398;8.814;2022-11-15T00:54:45;8.00;99.90
4201;DHT22;2114;50.398;8.814;2022-11-15T00:59:46;8.00;99.90
4201;DHT22;2114;50.398;8.814;2022-11-15T01:04:46;8.00;99.90
4201;DHT22;2114;50.398;8.814;2022-11-15T01:09:47;8.00;99.90
4201;DHT22;2114;50.398;8.814;2022-11-15T01:14:49;8.00;99.90
4201;DHT22;2114;50.398;8.814;2022-11-15T01:19:49;8.00;99.90
4201;DHT22;2114;50.398;8.814;2022-11-15T01:24:50;8.00;99.90
4201;DHT22;2114;50.398;8.814;2022-11-15T01:29:51;8.00;99.90
4201;DHT22;2114;50.398;8.814;2022-11-15T01:34:51;8.00;99.90
4201;DHT22;2114;50.398;8.814;2022-11-15T01:39:52;8.10;99.90
4201;DHT22;2114;50.398;8.814;2022-11-15T01:44:52;8.10;99.90
4201;DHT22;2114;50.398;8.814;2022-11-15T01:50:04;8.10;99.90
4201;DHT22;2114;50.398;8.814;2022-11-15T01:55:10;8.10;99.90
4201;DHT22;2114;50.398;8.814;2022-11-15T02:00:12;8.10;99.90
4201;DHT22;2114;50.398;8.814;2022-11-15T02:05:15;8.10;99.90
4201;DHT22;2114;50.398;8.814;2022-11-15T02:10:21;8.10;99.90
4201;DHT22;2114;50.398;8.814;2022-11-15T02:15:25;8.10;99.90
4201;DHT22;2114;50.398;8.814;2022-11-15T02:36:42;8.10;99.90
4201;DHT22;2114;50.398;8.814;2022-11-15T02:41:54;8.10;99.90
4201;DHT22;2114;50.398;8.814;2022-11-15T02:47:03;8.10;99.90
4201;DHT22;2114;50.398;8.814;2022-11-15T02:52:19;8.20;99.90
4201;DHT22;2114;50.398;8.814;2022-11-15T03:08:31;8.30;99.90
4201;DHT22;2114;50.398;8.814;2022-11-15T03:13:58;8.30;99.90
4201;DHT22;2114;50.398;8.814;2022-11-15T03:19:05;8.30;99.90
4201;DHT22;2114;50.398;8.814;2022-11-15T03:24:08;8.40;99.90
4201;DHT22;2114;50.398;8.814;2022-11-15T03:29:17;8.40;99.90
4201;DHT22;2114;50.398;8.814;2022-11-15T03:34:26;8.40;99.90
4201;DHT22;2114;50.398;8.814;2022-11-15T03:39:28;8.40;99.90
4201;DHT22;2114;50.398;8.814;2022-11-15T03:50:01;8.40;99.90
4201;DHT22;2114;50.398;8.814;2022-11-15T03:55:05;8.40;99.90
4201;DHT22;2114;50.398;8.814;2022-11-15T04:00:07;8.40;99.90
4201;DHT22;2114;50.398;8.814;2022-11-15T04:05:08;8.40;99.90
4201;DHT22;2114;50.398;8.814;2022-11-15T04:10:10;8.40;99.90
4201;DHT22;2114;50.398;8.814;2022-11-15T04:15:13;8.30;99.90
4201;DHT22;2114;50.398;8.814;2022-11-15T04:20:26;8.40;99.90
4201;DHT22;2114;50.398;8.814;2022-11-15T04:25:49;8.30;99.90
4201;DHT22;2114;50.398;8.814;2022-11-15T04:30:57;8.30;99.90
4201;DHT22;2114;50.398;8.814;2022-11-15T04:35:58;8.30;99.90
4201;DHT22;2114;50.398;8.814;2022-11-15T04:41:17;8.30;99.90
4201;DHT22;2114;50.398;8.814;2022-11-15T04:46:18;8.20;99.90
4201;DHT22;2114;50.398;8.814;2022-11-15T04:51:18;8.20;99.90
4201;DHT22;2114;50.398;8.814;2022-11-15T04:56:19;8.20;99.90
4201;DHT22;2114;50.398;8.814;2022-11-15T05:01:20;8.20;99.90
4201;DHT22;2114;50.398;8.814;2022-11-15T05:06:20;8.20;99.90
4201;DHT22;2114;50.398;8.814;2022-11-15T05:11:21;8.10;99.90
4201;DHT22;2114;50.398;8.814;2022-11-15T05:16:22;8.10;99.90
4201;DHT22;2114;50.398;8.814;2022-11-15T05:21:22;8.10;99.90
4201;DHT22;2114;50.398;8.814;2022-11-15T05:26:23;8.10;99.90
4201;DHT22;2114;50.398;8.814;2022-11-15T05:31:25;8.10;99.90
4201;DHT22;2114;50.398;8.814;2022-11-15T05:46:34;8.10;99.90
4201;DHT22;2114;50.398;8.814;2022-11-15T05:51:35;8.10;99.90
4201;DHT22;2114;50.398;8.814;2022-11-15T05:56:36;8.00;99.90
4201;DHT22;2114;50.398;8.814;2022-11-15T06:01:37;7.90;99.90
4201;DHT22;2114;50.398;8.814;2022-11-15T06:06:38;7.80;99.90
4201;DHT22;2114;50.398;8.814;2022-11-15T06:11:39;7.70;99.90
4201;DHT22;2114;50.398;8.814;2022-11-15T06:16:39;7.60;99.90
4201;DHT22;2114;50.398;8.814;2022-11-15T06:21:40;7.50;99.90
4201;DHT22;2114;50.398;8.814;2022-11-15T06:26:40;7.50;99.90
4201;DHT22;2114;50.398;8.814;2022-11-15T06:31:41;7.40;99.90
4201;DHT22;2114;50.398;8.814;2022-11-15T06:36:42;7.40;99.90
4201;DHT22;2114;50.398;8.814;2022-11-15T06:41:42;7.30;99.90
4201;DHT22;2114;50.398;8.814;2022-11-15T06:46:43;7.30;99.90
4201;DHT22;2114;50.398;8.814;2022-11-15T06:51:43;7.30;99.90
4201;DHT22;2114;50.398;8.814;2022-11-15T06:56:44;7.30;99.90
4201;DHT22;2114;50.398;8.814;2022-11-15T07:01:44;7.30;99.90
4201;DHT22;2114;50.398;8.814;2022-11-15T07:06:48;7.40;99.90
4201;DHT22;2114;50.398;8.814;2022-11-15T07:11:48;7.40;99.90
4201;DHT22;2114;50.398;8.814;2022-11-15T07:16:49;7.50;99.90
4201;DHT22;2114;50.398;8.814;2022-11-15T07:21:50;7.60;99.90
4201;DHT22;2114;50.398;8.814;2022-11-15T07:26:50;7.60;99.90
4201;DHT22;2114;50.398;8.814;2022-11-15T07:31:51;7.70;99.90
4201;DHT22;2114;50.398;8.814;2022-11-15T07:36:51;7.70;99.90
4201;DHT22;2114;50.398;8.814;2022-11-15T07:41:52;7.80;99.90
4201;DHT22;2114;50.398;8.814;2022-11-15T07:47:12;7.90;99.90
4201;DHT22;2114;50.398;8.814;2022-11-15T07:52:13;7.90;99.90
4201;DHT22;2114;50.398;8.814;2022-11-15T07:57:14;8.00;99.90
4201;DHT22;2114;50.398;8.814;2022-11-15T08:02:14;8.10;99.90
4201;DHT22;2114;50.398;8.814;2022-11-15T08:07:18;8.20;99.90
4201;DHT22;2114;50.398;8.814;2022-11-15T08:12:18;8.30;99.90
4201;DHT22;2114;50.398;8.814;2022-11-15T08:17:19;8.40;99.90
4201;DHT22;2114;50.398;8.814;2022-11-15T08:22:19;8.60;99.90
4201;DHT22;2114;50.398;8.814;2022-11-15T08:27:20;8.80;99.90
4201;DHT22;2114;50.398;8.814;2022-11-15T08:32:20;9.00;99.90
4201;DHT22;2114;50.398;8.814;2022-11-15T08:37:21;9.40;99.90
4201;DHT22;2114;50.398;8.814;2022-11-15T08:42:22;9.60;99.90
4201;DHT22;2114;50.398;8.814;2022-11-15T08:47:22;9.80;99.90
4201;DHT22;2114;50.398;8.814;2022-11-15T08:52:23;10.00;99.90
4201;DHT22;2114;50.398;8.814;2022-11-15T08:57:24;10.10;99.90
4201;DHT22;2114;50.398;8.814;2022-11-15T09:02:25;10.40;99.90
4201;DHT22;2114;50.398;8.814;2022-11-15T09:07:25;10.60;99.90
4201;DHT22;2114;50.398;8.814;2022-11-15T09:12:26;10.70;99.90
4201;DHT22;2114;50.398;8.814;2022-11-15T09:17:27;10.80;99.90
4201;DHT22;2114;50.398;8.814;2022-11-15T09:22:27;11.00;99.90
4201;DHT22;2114;50.398;8.814;2022-11-15T09:27:29;11.10;99.90
4201;DHT22;2114;50.398;8.814;2022-11-15T09:32:30;11.20;99.90
4201;DHT22;2114;50.398;8.814;2022-11-15T09:37:32;11.20;99.90
4201;DHT22;2114;50.398;8.814;2022-11-15T09:42:48;11.30;99.90
4201;DHT22;2114;50.398;8.814;2022-11-15T09:53:41;11.50;99.90
4201;DHT22;2114;50.398;8.814;2022-11-15T10:04:14;11.60;99.90
4201;DHT22;2114;50.398;8.814;2022-11-15T10:09:26;11.70;99.90
4201;DHT22;2114;50.398;8.814;2022-11-15T10:14:30;11.90;99.90
4201;DHT22;2114;50.398;8.814;2022-11-15T10:19:53;12.10;99.90
4201;DHT22;2114;50.398;8.814;2022-11-15T10:30:16;12.60;99.90
4201;DHT22;2114;50.398;8.814;2022-11-15T10:35:23;12.70;99.90
4201;DHT22;2114;50.398;8.814;2022-11-15T10:40:24;13.20;99.90
4201;DHT22;2114;50.398;8.814;2022-11-15T10:45:30;13.60;99.90
4201;DHT22;2114;50.398;8.814;2022-11-15T10:50:32;13.60;99.90
4201;DHT22;2114;50.398;8.814;2022-11-15T10:55:34;13.80;99.90
4201;DHT22;2114;50.398;8.814;2022-11-15T11:00:37;13.70;99.90
4201;DHT22;2114;50.398;8.814;2022-11-15T11:05:42;13.70;99.90
4201;DHT22;2114;50.398;8.814;2022-11-15T11:10:59;13.70;99.90
4201;DHT22;2114;50.398;8.814;2022-11-15T11:21:49;14.00;99.90
4201;DHT22;2114;50.398;8.814;2022-11-15T11:27:55;14.10;99.90
4201;DHT22;2114;50.398;8.814;2022-11-15T11:37:53;13.90;99.90
4201;DHT22;2114;50.398;8.814;2022-11-15T11:43:16;14.20;99.90
4201;DHT22;2114;50.398;8.814;2022-11-15T11:53:35;14.60;99.90
4201;DHT22;2114;50.398;8.814;2022-11-15T11:58:43;14.70;99.90
4201;DHT22;2114;50.398;8.814;2022-11-15T12:09:13;14.80;99.90
4201;DHT22;2114;50.398;8.814;2022-11-15T12:19:47;14.80;99.90
4201;DHT22;2114;50.398;8.814;2022-11-15T12:29:55;15.30;99.90
4201;DHT22;2114;50.398;8.814;2022-11-15T12:34:57;15.60;99.90
4201;DHT22;2114;50.398;8.814;2022-11-15T13:01:52;15.30;99.90
4201;DHT22;2114;50.398;8.814;2022-11-15T13:07:04;15.20;99.90
4201;DHT22;2114;50.398;8.814;2022-11-15T13:17:50;15.20;99.90
4201;DHT22;2114;50.398;8.814;2022-11-15T13:23:09;15.20;99.90
4201;DHT22;2114;50.398;8.814;2022-11-15T13:33:24;14.80;99.90
4201;DHT22;2114;50.398;8.814;2022-11-15T13:38:26;14.70;99.90
4201;DHT22;2114;50.398;8.814;2022-11-15T13:43:34;14.50;99.90
4201;DHT22;2114;50.398;8.814;2022-11-15T13:48:35;14.50;99.90
4201;DHT22;2114;50.398;8.814;2022-11-15T13:53:40;14.40;99.90
4201;DHT22;2114;50.398;8.814;2022-11-15T13:58:42;14.30;99.90
4201;DHT22;2114;50.398;8.814;2022-11-15T14:03:59;14.30;99.90
4201;DHT22;2114;50.398;8.814;2022-11-15T14:24:32;13.80;99.90
4201;DHT22;2114;50.398;8.814;2022-11-15T14:29:32;13.70;99.90
4201;DHT22;2114;50.398;8.814;2022-11-15T14:34:33;13.60;99.90
4201;DHT22;2114;50.398;8.814;2022-11-15T14:39:33;13.60;99.90
4201;DHT22;2114;50.398;8.814;2022-11-15T14:44:34;13.50;99.90
4201;DHT22;2114;50.398;8.814;2022-11-15T14:49:35;13.30;99.90
4201;DHT22;2114;50.398;8.814;2022-11-15T14:54:35;13.30;99.90
4201;DHT22;2114;50.398;8.814;2022-11-15T14:59:36;13.20;99.90
4201;DHT22;2114;50.398;8.814;2022-11-15T15:04:36;13.10;99.90
4201;DHT22;2114;50.398;8.814;2022-11-15T15:09:37;12.90;99.90
4201;DHT22;2114;50.398;8.814;2022-11-15T15:14:38;12.80;99.90
4201;DHT22;2114;50.398;8.814;2022-11-15T15:19:38;12.70;99.90
4201;DHT22;2114;50.398;8.814;2022-11-15T15:24:39;12.60;99.90
4201;DHT22;2114;50.398;8.814;2022-11-15T15:29:40;12.50;99.90
4201;DHT22;2114;50.398;8.814;2022-11-15T15:34:40;12.30;99.90
4201;DHT22;2114;50.398;8.814;2022-11-15T15:39:41;12.30;99.90
4201;DHT22;2114;50.398;8.814;2022-11-15T15:44:41;12.20;99.90
4201;DHT22;2114;50.398;8.814;2022-11-15T15:49:42;12.10;99.90
4201;DHT22;2114;50.398;8.814;2022-11-15T15:54:43;12.00;99.90
4201;DHT22;2114;50.398;8.814;2022-11-15T15:59:43;11.90;99.90
4201;DHT22;2114;50.398;8.814;2022-11-15T16:04:44;11.80;99.90
4201;DHT22;2114;50.398;8.814;2022-11-15T16:09:44;11.60;99.90
4201;DHT22;2114;50.398;8.814;2022-11-15T16:15:01;11.60;99.90
4201;DHT22;2114;50.398;8.814;2022-11-15T16:20:01;11.40;99.90
4201;DHT22;2114;50.398;8.814;2022-11-15T16:25:03;11.30;99.90
4201;DHT22;2114;50.398;8.814;2022-11-15T16:30:04;11.40;99.90
4201;DHT22;2114;50.398;8.814;2022-11-15T16:35:04;11.60;99.90
4201;DHT22;2114;50.398;8.814;2022-11-15T16:40:16;11.70;99.90
4201;DHT22;2114;50.398;8.814;2022-11-15T16:45:18;11.80;99.90
4201;DHT22;2114;50.398;8.814;2022-11-15T16:50:22;11.80;99.90
4201;DHT22;2114;50.398;8.814;2022-11-15T16:55:26;11.90;99.90
4201;DHT22;2114;50.398;8.814;2022-11-15T17:00:27;11.90;99.90
4201;DHT22;2114;50.398;8.814;2022-11-15T17:05:28;12.00;99.90
4201;DHT22;2114;50.398;8.814;2022-11-15T17:10:28;12.00;99.90
4201;DHT22;2114;50.398;8.814;2022-11-15T17:15:29;12.00;99.90
4201;DHT22;2114;50.398;8.814;2022-11-15T17:20:29;12.00;99.90
4201;DHT22;2114;50.398;8.814;2022-11-15T17:25:30;12.00;99.90
4201;DHT22;2114;50.398;8.814;2022-11-15T17:30:30;12.00;99.90
4201;DHT22;2114;50.398;8.814;2022-11-15T17:35:31;12.00;99.90
4201;DHT22;2114;50.398;8.814;2022-11-15T17:40:31;12.00;99.90
4201;DHT22;2114;50.398;8.814;2022-11-15T17:45:32;11.90;99.90
4201;DHT22;2114;50.398;8.814;2022-11-15T17:50:32;11.90;99.90
4201;DHT22;2114;50.398;8.814;2022-11-15T17:55:33;11.80;99.90
4201;DHT22;2114;50.398;8.814;2022-11-15T18:00:34;11.80;99.90
4201;DHT22;2114;50.398;8.814;2022-11-15T18:05:37;11.70;99.90
4201;DHT22;2114;50.398;8.814;2022-11-15T18:10:37;11.70;99.90
4201;DHT22;2114;50.398;8.814;2022-11-15T18:15:38;11.70;99.90
4201;DHT22;2114;50.398;8.814;2022-11-15T18:20:38;11.60;99.90
4201;DHT22;2114;50.398;8.814;2022-11-15T18:25:39;11.50;99.90
4201;DHT22;2114;50.398;8.814;2022-11-15T18:30:39;11.50;99.90
4201;DHT22;2114;50.398;8.814;2022-11-15T18:35:40;11.50;99.90
4201;DHT22;2114;50.398;8.814;2022-11-15T18:40:41;11.50;99.90
4201;DHT22;2114;50.398;8.814;2022-11-15T18:45:41;11.40;99.90
4201;DHT22;2114;50.398;8.814;2022-11-15T18:50:42;11.40;99.90
4201;DHT22;2114;50.398;8.814;2022-11-15T18:55:42;11.40;99.90
4201;DHT22;2114;50.398;8.814;2022-11-15T19:00:43;11.40;99.90
4201;DHT22;2114;50.398;8.814;2022-11-15T19:05:43;11.40;99.90
4201;DHT22;2114;50.398;8.814;2022-11-15T19:10:44;11.30;99.90
4201;DHT22;2114;50.398;8.814;2022-11-15T19:15:44;11.30;99.90
4201;DHT22;2114;50.398;8.814;2022-11-15T19:20:45;11.30;99.90
4201;DHT22;2114;50.398;8.814;2022-11-15T19:25:57;11.30;99.90
4201;DHT22;2114;50.398;8.814;2022-11-15T19:31:12;11.30;99.90
4201;DHT22;2114;50.398;8.814;2022-11-15T19:36:15;11.30;99.90
4201;DHT22;2114;50.398;8.814;2022-11-15T19:41:18;11.30;99.90
4201;DHT22;2114;50.398;8.814;2022-11-15T19:46:20;11.20;99.90
4201;DHT22;2114;50.398;8.814;2022-11-15T19:51:24;11.20;99.90
4201;DHT22;2114;50.398;8.814;2022-11-15T19:56:25;11.20;99.90
4201;DHT22;2114;50.398;8.814;2022-11-15T20:01:28;11.20;99.90
4201;DHT22;2114;50.398;8.814;2022-11-15T20:06:39;11.20;99.90
4201;DHT22;2114;50.398;8.814;2022-11-15T20:11:40;11.10;99.90
4201;DHT22;2114;50.398;8.814;2022-11-15T20:16:41;11.20;99.90
4201;DHT22;2114;50.398;8.814;2022-11-15T20:21:42;11.10;99.90
4201;DHT22;2114;50.398;8.814;2022-11-15T20:26:43;11.10;99.90
4201;DHT22;2114;50.398;8.814;2022-11-15T20:31:44;11.10;99.90
4201;DHT22;2114;50.398;8.814;2022-11-15T20:36:44;11.10;99.90
4201;DHT22;2114;50.398;8.814;2022-11-15T20:41:45;11.10;99.90
4201;DHT22;2114;50.398;8.814;2022-11-15T20:46:45;11.00;99.90
4201;DHT22;2114;50.398;8.814;2022-11-15T20:51:46;11.00;99.90
4201;DHT22;2114;50.398;8.814;2022-11-15T20:56:46;11.00;99.90
4201;DHT22;2114;50.398;8.814;2022-11-15T21:01:47;11.00;99.90
4201;DHT22;2114;50.398;8.814;2022-11-15T21:06:47;11.00;99.90
4201;DHT22;2114;50.398;8.814;2022-11-15T21:11:48;10.90;99.90
4201;DHT22;2114;50.398;8.814;2022-11-15T21:17:07;10.90;99.90
4201;DHT22;2114;50.398;8.814;2022-11-15T21:22:11;10.90;99.90
4201;DHT22;2114;50.398;8.814;2022-11-15T21:27:12;10.90;99.90
4201;DHT22;2114;50.398;8.814;2022-11-15T21:32:12;10.90;99.90
4201;DHT22;2114;50.398;8.814;2022-11-15T21:37:13;10.80;99.90
4201;DHT22;2114;50.398;8.814;2022-11-15T21:42:13;10.80;99.90
4201;DHT22;2114;50.398;8.814;2022-11-15T21:47:14;10.80;99.90
4201;DHT22;2114;50.398;8.814;2022-11-15T21:52:15;10.70;99.90
4201;DHT22;2114;50.398;8.814;2022-11-15T21:57:15;10.70;99.90
4201;DHT22;2114;50.398;8.814;2022-11-15T22:02:18;10.70;99.90
4201;DHT22;2114;50.398;8.814;2022-11-15T22:07:18;10.70;99.90
4201;DHT22;2114;50.398;8.814;2022-11-15T22:12:19;10.70;99.90
4201;DHT22;2114;50.398;8.814;2022-11-15T22:17:19;10.60;99.90
4201;DHT22;2114;50.398;8.814;2022-11-15T22:22:20;10.60;99.90
4201;DHT22;2114;50.398;8.814;2022-11-15T22:27:20;10.60;99.90
4201;DHT22;2114;50.398;8.814;2022-11-15T22:32:21;10.60;99.90
4201;DHT22;2114;50.398;8.814;2022-11-15T22:37:22;10.60;99.90
4201;DHT22;2114;50.398;8.814;2022-11-15T22:42:22;10.60;99.90
4201;DHT22;2114;50.398;8.814;2022-11-15T22:47:23;10.50;99.90
4201;DHT22;2114;50.398;8.814;2022-11-15T22:52:24;10.50;99.90
4201;DHT22;2114;50.398;8.814;2022-11-15T22:57:24;10.50;99.90
4201;DHT22;2114;50.398;8.814;2022-11-15T23:02:25;10.50;99.90
4201;DHT22;2114;50.398;8.814;2022-11-15T23:07:26;10.50;99.90
4201;DHT22;2114;50.398;8.814;2022-11-15T23:12:26;10.50;99.90
4201;DHT22;2114;50.398;8.814;2022-11-15T23:17:46;10.50;99.90
4201;DHT22;2114;50.398;8.814;2022-11-15T23:22:46;10.40;99.90
4201;DHT22;2114;50.398;8.814;2022-11-15T23:27:47;10.40;99.90
4201;DHT22;2114;50.398;8.814;2022-11-15T23:32:47;10.40;99.90
4201;DHT22;2114;50.398;8.814;2022-11-15T23:38:07;10.40;99.90
4201;DHT22;2114;50.398;8.814;2022-11-15T23:43:07;10.40;99.90
4201;DHT22;2114;50.398;8.814;2022-11-15T23:48:08;10.30;99.90
4201;DHT22;2114;50.398;8.814;2022-11-15T23:53:08;10.30;99.90
4201;DHT22;2114;50.398;8.814;2022-11-15T23:58:09;10.30;99.90
